Flight Track Log - Related Links

Times and Time Zones

All times are in EDT time to prevent confusion due to time zone crossing. See the GJS6221 flight status page for this flight to view local times or setup timezone preferences in your user account.

Time Position Orientation Groundspeed Altitude Reporting Facility
EDT Latitude Longitude Course Direction KTS MPH feet Rate Location/Type
Sat 02:25:44 PM 44.4081 -73.3089 196° South 282 325 8,900  Level Boston Center
Sat 02:26:44 PM 44.3308 -73.3281 190° South 277 319 11,200 2,150 Climbing Boston Center
Sat 02:27:44 PM 44.2431 -73.3558 193° South 305 351 13,200 1,800 Climbing Boston Center
Sat 02:28:44 PM 44.1428 -73.3889 193° South 351 404 14,800 1,750 Climbing Boston Center
Sat 02:29:00 PM 43.9928 -73.3296 196° South  Level FlightAware Approximate
Sat 02:29:44 PM 44.0406 -73.4192 192° South 375 432 16,700  Level Boston Center
Sat 02:30:00 PM 43.9140 -73.3611 196° South  Level FlightAware Approximate
Sat 02:30:44 PM 43.9297 -73.4519 192° South 391 450 18,500  Level Boston Center
Sat 02:31:44 PM 43.8231 -73.4847 193° South 397 457 20,200 1,650 Climbing Boston Center
Sat 02:32:44 PM 43.7144 -73.5172 192° South 421 484 21,800 900 Climbing Boston Center
Sat 02:33:44 PM 43.5850 -73.5578 193° South 434 499 22,000 100 Climbing Boston Center
Sat 02:34:44 PM 43.4700 -73.5931 193° South 434 499 22,000  Level Boston Center
Sat 02:35:44 PM 43.3508 -73.6250 191° South 434 499 22,000  Level Boston Center
Sat 02:36:44 PM 43.2339 -73.6597 192° South 434 499 22,000  Level Boston Center
Sat 02:37:44 PM 43.1125 -73.7000 194° South 434 499 22,000  Level Boston Center
Sat 02:38:44 PM 43.0119 -73.7292 192° South 434 499 22,000  Level Boston Center
Sat 02:39:44 PM 42.8928 -73.7664 193° South 429 494 22,000 -50 Level Boston Center
Sat 02:40:44 PM 42.7736 -73.7978 191° South 434 499 21,900 -400 Descending Boston Center
Sat 02:41:44 PM 42.6592 -73.7867 176° South 417 480 21,200 -750 Descending Boston Center
Sat 02:42:44 PM 42.5364 -73.7644 172° South 412 474 20,400 -750 Descending Boston Center
Sat 02:43:44 PM 42.4222 -73.7422 172° South 412 474 19,700 -650 Descending Boston Center
Sat 02:44:44 PM 42.3369 -73.7236 171° South 406 467 19,100 -700 Descending Boston Center
Sat 02:45:44 PM 42.2039 -73.6958 171° South 406 467 18,300 -550 Descending Boston Center
Sat 02:46:44 PM 42.0978 -73.6739 171° South 406 467 18,000 -150 Descending Boston Center
Sat 02:47:44 PM 41.9958 -73.6469 169° South 388 447 18,000 -100 Level Boston Center
Sat 02:48:44 PM 41.9106 -73.6314 172° South 372 428 17,800 -450 Descending Boston Center
Sat 02:49:44 PM 41.8108 -73.6100 171° South 342 394 17,100 -400 Descending Boston Center
Sat 02:50:44 PM 41.7478 -73.6672 214° Southwest 300 345 17,000 -300 Descending Boston Center
Sat 02:51:44 PM 41.6881 -73.7800 235° Southwest 299 344 16,500 -600 Descending Boston Center
Sat 02:52:44 PM 41.6206 -73.8342 211° Southwest 317 365 15,800 -815 Descending Boston Center
Sat 02:53:05 PM 41.5833 -73.8333 179° South 319 367 15,400 -1,778 Descending New York TRACON
Sat 02:54:05 PM 41.5000 -73.8667 197° South 309 356 13,400 -2,083 Descending New York TRACON
Sat 02:55:06 PM 41.4167 -73.8667 180° South 297 342 11,200 -2,132 Descending New York TRACON
Sat 02:56:06 PM 41.3500 -73.8000 143° Southeast 279 321 9,100 -1,600 Descending New York TRACON
Sat 02:57:06 PM 41.3000 -73.7500 143° Southeast 249 287 8,000 -1,300 Descending New York TRACON
Sat 02:58:06 PM 41.2333 -73.7000 151° Southeast 238 274 6,500 -1,550 Descending New York TRACON
Sat 02:59:06 PM 41.1833 -73.6500 143° Southeast 239 275 4,900 -1,250 Descending New York TRACON
Sat 03:00:06 PM 41.1167 -73.6333 169° South 231 266 4,000 -450 Descending New York TRACON
Sat 03:01:06 PM 41.0667 -73.6500 194° South 204 235 4,000  Level New York TRACON
Sat 03:02:06 PM 41.0167 -73.6833 207° Southwest 201 231 4,000  Level New York TRACON
Sat 03:03:06 PM 40.9667 -73.7167 207° Southwest 199 229 4,000 -350 Level New York TRACON
Sat 03:04:06 PM 40.9167 -73.7500 207° Southwest 201 231 3,300 -900 Descending New York TRACON
Sat 03:05:06 PM 40.8833 -73.8000 229° Southwest 184 212 2,200 -950 Descending New York TRACON
Sat 03:06:06 PM 40.8500 -73.8167 201° Southwest 139 160 1,400 -595 Descending New York TRACON
Sat 03:07:07 PM 40.8167 -73.8500 217° Southwest 136 157 1,000 -248 Descending New York TRACON
Sat 03:08:07 PM 40.8167 -73.9000 270° West 147 169 900 -316 Descending New York TRACON
Sat 03:09:01 PM 40.7833 -73.9000 180° South 137 158 400 -556 Descending New York TRACON
Sat 03:11:00 PM 40.7772 -73.8726 180° South  Level Estimated
Sat 03:18:00 PM 40.7772 -73.8726 180° South  Level Estimated

Login

Don't have an account? Register now (free) for customized features, flight alerts, and more!